sensor_id;sensor_type;location;lat;lon;timestamp;pressure;altitude;pressure_sealevel;temperature;humidity
61292;BME280;47165;42.664;23.368;2023-04-30T00:02:09;94717.22;;;13.48;57.37
61292;BME280;47165;42.664;23.368;2023-04-30T00:04:34;94724.63;;;13.30;57.41
61292;BME280;47165;42.664;23.368;2023-04-30T00:07:00;94721.22;;;13.17;57.97
61292;BME280;47165;42.664;23.368;2023-04-30T00:09:26;94713.78;;;13.11;57.96
61292;BME280;47165;42.664;23.368;2023-04-30T00:11:51;94722.38;;;13.13;58.03
61292;BME280;47165;42.664;23.368;2023-04-30T00:14:17;94722.44;;;13.24;57.70
61292;BME280;47165;42.664;23.368;2023-04-30T00:16:42;94721.06;;;13.18;57.61
61292;BME280;47165;42.664;23.368;2023-04-30T00:19:08;94721.03;;;13.07;57.89
61292;BME280;47165;42.664;23.368;2023-04-30T00:21:34;94715.50;;;12.99;57.95
61292;BME280;47165;42.664;23.368;2023-04-30T00:23:59;94721.38;;;12.89;58.25
61292;BME280;47165;42.664;23.368;2023-04-30T00:26:25;94725.06;;;12.87;58.14
61292;BME280;47165;42.664;23.368;2023-04-30T00:28:51;94720.53;;;12.89;57.82
61292;BME280;47165;42.664;23.368;2023-04-30T00:31:16;94718.88;;;12.88;57.58
61292;BME280;47165;42.664;23.368;2023-04-30T00:33:41;94718.03;;;12.87;57.77
61292;BME280;47165;42.664;23.368;2023-04-30T00:36:07;94723.94;;;12.78;57.76
61292;BME280;47165;42.664;23.368;2023-04-30T00:38:32;94724.56;;;12.69;58.10
61292;BME280;47165;42.664;23.368;2023-04-30T00:40:58;94723.94;;;12.65;58.18
61292;BME280;47165;42.664;23.368;2023-04-30T00:43:23;94721.84;;;12.71;57.70
61292;BME280;47165;42.664;23.368;2023-04-30T00:45:49;94709.47;;;12.73;57.56
61292;BME280;47165;42.664;23.368;2023-04-30T00:48:15;94718.28;;;12.59;57.55
61292;BME280;47165;42.664;23.368;2023-04-30T00:50:42;94720.91;;;12.72;57.39
61292;BME280;47165;42.664;23.368;2023-04-30T00:53:08;94715.88;;;12.68;57.57
61292;BME280;47165;42.664;23.368;2023-04-30T00:55:34;94718.28;;;12.72;57.06
61292;BME280;47165;42.664;23.368;2023-04-30T00:58:00;94717.69;;;12.55;57.74
61292;BME280;47165;42.664;23.368;2023-04-30T01:00:26;94725.22;;;12.60;57.42
61292;BME280;47165;42.664;23.368;2023-04-30T01:02:52;94706.56;;;12.52;57.48
61292;BME280;47165;42.664;23.368;2023-04-30T01:05:18;94713.38;;;12.54;57.23
61292;BME280;47165;42.664;23.368;2023-04-30T01:07:44;94708.56;;;12.35;57.78
61292;BME280;47165;42.664;23.368;2023-04-30T01:10:12;94711.28;;;12.34;57.74
61292;BME280;47165;42.664;23.368;2023-04-30T01:13:13;94717.91;;;12.26;57.94
61292;BME280;47165;42.664;23.368;2023-04-30T01:15:54;94712.84;;;12.23;57.79
61292;BME280;47165;42.664;23.368;2023-04-30T01:18:27;94718.09;;;12.23;57.79
61292;BME280;47165;42.664;23.368;2023-04-30T01:21:00;94719.47;;;12.16;57.82
61292;BME280;47165;42.664;23.368;2023-04-30T01:29:21;94714.00;;;12.06;57.70
61292;BME280;47165;42.664;23.368;2023-04-30T01:31:46;94714.84;;;12.07;57.42
61292;BME280;47165;42.664;23.368;2023-04-30T01:34:12;94716.22;;;12.00;57.75
61292;BME280;47165;42.664;23.368;2023-04-30T01:45:26;94721.16;;;11.77;58.40
61292;BME280;47165;42.664;23.368;2023-04-30T01:48:07;94711.50;;;11.65;58.70
61292;BME280;47165;42.664;23.368;2023-04-30T01:50:52;94723.31;;;11.71;58.55
61292;BME280;47165;42.664;23.368;2023-04-30T01:53:23;94711.91;;;11.59;58.44
61292;BME280;47165;42.664;23.368;2023-04-30T01:56:03;94715.06;;;11.64;58.55
61292;BME280;47165;42.664;23.368;2023-04-30T01:58:30;94704.66;;;11.50;59.17
61292;BME280;47165;42.664;23.368;2023-04-30T02:00:56;94711.19;;;11.57;58.86
61292;BME280;47165;42.664;23.368;2023-04-30T02:03:22;94709.78;;;11.51;58.93
61292;BME280;47165;42.664;23.368;2023-04-30T02:05:47;94709.06;;;11.49;58.80
61292;BME280;47165;42.664;23.368;2023-04-30T02:08:13;94715.34;;;11.59;58.85
61292;BME280;47165;42.664;23.368;2023-04-30T02:10:38;94713.88;;;11.55;58.98
61292;BME280;47165;42.664;23.368;2023-04-30T02:13:03;94714.28;;;11.49;59.27
61292;BME280;47165;42.664;23.368;2023-04-30T02:15:29;94716.34;;;11.44;59.70
61292;BME280;47165;42.664;23.368;2023-04-30T02:17:54;94715.31;;;11.46;59.67
61292;BME280;47165;42.664;23.368;2023-04-30T02:20:20;94717.59;;;11.38;58.98
61292;BME280;47165;42.664;23.368;2023-04-30T02:22:46;94715.16;;;11.35;59.21
61292;BME280;47165;42.664;23.368;2023-04-30T02:25:12;94719.59;;;11.47;58.86
61292;BME280;47165;42.664;23.368;2023-04-30T02:27:39;94714.59;;;11.44;58.78
61292;BME280;47165;42.664;23.368;2023-04-30T02:30:05;94712.22;;;11.27;59.25
61292;BME280;47165;42.664;23.368;2023-04-30T02:32:30;94714.88;;;11.13;60.04
61292;BME280;47165;42.664;23.368;2023-04-30T02:34:56;94716.41;;;11.02;60.10
61292;BME280;47165;42.664;23.368;2023-04-30T02:37:21;94719.00;;;11.02;59.96
61292;BME280;47165;42.664;23.368;2023-04-30T02:39:47;94706.34;;;10.96;60.25
61292;BME280;47165;42.664;23.368;2023-04-30T02:42:13;94723.56;;;10.99;59.87
61292;BME280;47165;42.664;23.368;2023-04-30T02:44:38;94709.59;;;11.00;60.29
61292;BME280;47165;42.664;23.368;2023-04-30T02:47:04;94723.84;;;11.08;59.99
61292;BME280;47165;42.664;23.368;2023-04-30T02:49:29;94717.69;;;11.10;59.98
61292;BME280;47165;42.664;23.368;2023-04-30T02:51:55;94723.66;;;11.12;60.04
61292;BME280;47165;42.664;23.368;2023-04-30T02:54:20;94721.59;;;11.17;59.87
61292;BME280;47165;42.664;23.368;2023-04-30T02:56:46;94727.47;;;11.20;59.62
61292;BME280;47165;42.664;23.368;2023-04-30T02:59:11;94731.13;;;11.18;60.08
61292;BME280;47165;42.664;23.368;2023-04-30T03:01:37;94728.59;;;11.16;60.21
61292;BME280;47165;42.664;23.368;2023-04-30T03:04:02;94732.78;;;11.19;60.05
61292;BME280;47165;42.664;23.368;2023-04-30T03:06:29;94736.78;;;11.24;59.66
61292;BME280;47165;42.664;23.368;2023-04-30T03:08:55;94731.63;;;11.23;59.83
61292;BME280;47165;42.664;23.368;2023-04-30T03:11:21;94737.16;;;11.18;59.97
61292;BME280;47165;42.664;23.368;2023-04-30T03:13:46;94742.09;;;11.23;60.39
61292;BME280;47165;42.664;23.368;2023-04-30T03:16:15;94736.69;;;11.26;60.23
61292;BME280;47165;42.664;23.368;2023-04-30T03:18:41;94742.31;;;11.20;60.74
61292;BME280;47165;42.664;23.368;2023-04-30T03:21:06;94743.56;;;11.27;60.24
61292;BME280;47165;42.664;23.368;2023-04-30T03:23:32;94737.97;;;11.33;60.28
61292;BME280;47165;42.664;23.368;2023-04-30T03:25:57;94742.25;;;11.34;59.90
61292;BME280;47165;42.664;23.368;2023-04-30T03:28:23;94737.78;;;11.36;59.71
61292;BME280;47165;42.664;23.368;2023-04-30T03:30:48;94741.53;;;11.32;60.25
61292;BME280;47165;42.664;23.368;2023-04-30T03:33:13;94737.31;;;11.30;59.99
61292;BME280;47165;42.664;23.368;2023-04-30T03:35:39;94739.66;;;11.34;60.35
61292;BME280;47165;42.664;23.368;2023-04-30T03:38:04;94735.25;;;11.35;60.57
61292;BME280;47165;42.664;23.368;2023-04-30T03:40:30;94737.56;;;11.39;60.15
61292;BME280;47165;42.664;23.368;2023-04-30T03:42:55;94748.09;;;11.38;60.72
61292;BME280;47165;42.664;23.368;2023-04-30T03:45:20;94749.91;;;11.37;61.09
61292;BME280;47165;42.664;23.368;2023-04-30T03:47:46;94751.59;;;11.38;61.16
61292;BME280;47165;42.664;23.368;2023-04-30T03:50:13;94755.78;;;11.41;61.21
61292;BME280;47165;42.664;23.368;2023-04-30T03:52:38;94764.25;;;11.44;61.63
61292;BME280;47165;42.664;23.368;2023-04-30T03:55:04;94763.13;;;11.48;61.03
61292;BME280;47165;42.664;23.368;2023-04-30T03:57:31;94768.34;;;11.48;60.56
61292;BME280;47165;42.664;23.368;2023-04-30T03:59:57;94770.97;;;11.48;60.95
61292;BME280;47165;42.664;23.368;2023-04-30T04:02:23;94768.16;;;11.52;61.42
61292;BME280;47165;42.664;23.368;2023-04-30T04:04:49;94769.63;;;11.56;61.79
61292;BME280;47165;42.664;23.368;2023-04-30T04:07:15;94757.50;;;11.55;60.72
61292;BME280;47165;42.664;23.368;2023-04-30T04:09:41;94767.75;;;11.58;61.34
61292;BME280;47165;42.664;23.368;2023-04-30T04:12:06;94772.59;;;11.64;60.77
61292;BME280;47165;42.664;23.368;2023-04-30T04:14:32;94769.56;;;11.70;61.30
61292;BME280;47165;42.664;23.368;2023-04-30T04:16:57;94768.44;;;11.74;61.89
61292;BME280;47165;42.664;23.368;2023-04-30T04:19:24;94767.38;;;11.77;60.95
61292;BME280;47165;42.664;23.368;2023-04-30T04:21:50;94772.34;;;11.81;60.69
61292;BME280;47165;42.664;23.368;2023-04-30T04:24:15;94770.34;;;11.85;59.96
61292;BME280;47165;42.664;23.368;2023-04-30T04:26:41;94775.38;;;11.88;59.84
61292;BME280;47165;42.664;23.368;2023-04-30T04:29:06;94780.16;;;11.96;60.25
61292;BME280;47165;42.664;23.368;2023-04-30T04:31:35;94773.22;;;11.95;61.56
61292;BME280;47165;42.664;23.368;2023-04-30T04:34:02;94777.31;;;11.99;61.72
61292;BME280;47165;42.664;23.368;2023-04-30T04:36:29;94783.09;;;12.04;60.29
61292;BME280;47165;42.664;23.368;2023-04-30T04:38:57;94781.94;;;12.08;59.29
61292;BME280;47165;42.664;23.368;2023-04-30T04:41:27;94777.22;;;12.13;58.72
61292;BME280;47165;42.664;23.368;2023-04-30T04:43:52;94786.56;;;12.17;60.66
61292;BME280;47165;42.664;23.368;2023-04-30T04:46:18;94793.25;;;12.21;60.42
61292;BME280;47165;42.664;23.368;2023-04-30T04:48:45;94789.50;;;12.25;60.09
61292;BME280;47165;42.664;23.368;2023-04-30T04:51:11;94790.97;;;12.30;59.51
61292;BME280;47165;42.664;23.368;2023-04-30T04:53:36;94789.91;;;12.32;59.46
61292;BME280;47165;42.664;23.368;2023-04-30T04:56:02;94792.25;;;12.37;59.77
61292;BME280;47165;42.664;23.368;2023-04-30T04:58:27;94794.00;;;12.36;59.57
61292;BME280;47165;42.664;23.368;2023-04-30T05:00:52;94794.88;;;12.37;59.40
61292;BME280;47165;42.664;23.368;2023-04-30T05:03:19;94801.56;;;12.41;59.65
61292;BME280;47165;42.664;23.368;2023-04-30T05:05:45;94802.63;;;12.51;59.36
61292;BME280;47165;42.664;23.368;2023-04-30T05:08:10;94796.97;;;12.57;59.32
61292;BME280;47165;42.664;23.368;2023-04-30T05:10:36;94799.28;;;12.62;60.59
61292;BME280;47165;42.664;23.368;2023-04-30T05:13:01;94787.22;;;12.59;61.16
61292;BME280;47165;42.664;23.368;2023-04-30T05:15:26;94804.00;;;12.70;61.04
61292;BME280;47165;42.664;23.368;2023-04-30T05:17:52;94804.59;;;12.73;60.87
61292;BME280;47165;42.664;23.368;2023-04-30T05:20:17;94795.19;;;12.71;60.73
61292;BME280;47165;42.664;23.368;2023-04-30T05:22:43;94810.28;;;12.80;60.68
61292;BME280;47165;42.664;23.368;2023-04-30T05:25:08;94803.88;;;12.84;60.70
61292;BME280;47165;42.664;23.368;2023-04-30T05:27:34;94795.78;;;12.87;60.45
61292;BME280;47165;42.664;23.368;2023-04-30T05:30:00;94795.69;;;12.88;60.06
61292;BME280;47165;42.664;23.368;2023-04-30T05:32:26;94795.47;;;12.92;60.35
61292;BME280;47165;42.664;23.368;2023-04-30T05:34:52;94795.91;;;12.98;60.29
61292;BME280;47165;42.664;23.368;2023-04-30T05:37:17;94799.75;;;13.05;60.35
61292;BME280;47165;42.664;23.368;2023-04-30T05:39:45;94805.53;;;13.11;60.54
61292;BME280;47165;42.664;23.368;2023-04-30T05:42:10;94800.78;;;13.16;60.25
61292;BME280;47165;42.664;23.368;2023-04-30T05:44:36;94800.47;;;13.20;60.21
61292;BME280;47165;42.664;23.368;2023-04-30T05:47:01;94795.84;;;13.24;59.89
61292;BME280;47165;42.664;23.368;2023-04-30T05:49:27;94792.38;;;13.23;60.48
61292;BME280;47165;42.664;23.368;2023-04-30T05:51:52;94797.84;;;13.33;59.81
61292;BME280;47165;42.664;23.368;2023-04-30T05:54:17;94788.81;;;13.37;59.85
61292;BME280;47165;42.664;23.368;2023-04-30T05:56:43;94795.09;;;13.47;60.29
61292;BME280;47165;42.664;23.368;2023-04-30T05:59:08;94802.53;;;13.54;59.56
61292;BME280;47165;42.664;23.368;2023-04-30T06:01:33;94800.38;;;13.59;59.54
61292;BME280;47165;42.664;23.368;2023-04-30T06:04:00;94813.88;;;13.65;58.66
61292;BME280;47165;42.664;23.368;2023-04-30T06:06:27;94813.59;;;13.70;58.83
61292;BME280;47165;42.664;23.368;2023-04-30T06:08:53;94812.72;;;13.69;59.28
61292;BME280;47165;42.664;23.368;2023-04-30T06:11:18;94806.94;;;13.77;58.94
61292;BME280;47165;42.664;23.368;2023-04-30T06:13:46;94810.66;;;13.86;58.55
61292;BME280;47165;42.664;23.368;2023-04-30T06:16:12;94810.34;;;13.91;57.95
61292;BME280;47165;42.664;23.368;2023-04-30T06:18:37;94809.66;;;14.00;57.99
61292;BME280;47165;42.664;23.368;2023-04-30T06:21:02;94816.88;;;14.09;57.97
61292;BME280;47165;42.664;23.368;2023-04-30T06:23:28;94812.00;;;14.16;58.41
61292;BME280;47165;42.664;23.368;2023-04-30T06:25:53;94822.72;;;14.13;57.26
61292;BME280;47165;42.664;23.368;2023-04-30T06:28:19;94814.28;;;14.20;57.19
61292;BME280;47165;42.664;23.368;2023-04-30T06:30:46;94815.50;;;14.27;56.85
61292;BME280;47165;42.664;23.368;2023-04-30T06:33:11;94821.75;;;14.38;56.37
61292;BME280;47165;42.664;23.368;2023-04-30T06:35:37;94819.47;;;14.44;56.14
61292;BME280;47165;42.664;23.368;2023-04-30T06:38:02;94816.25;;;14.41;56.24
61292;BME280;47165;42.664;23.368;2023-04-30T06:40:28;94827.97;;;14.48;55.83
61292;BME280;47165;42.664;23.368;2023-04-30T06:42:53;94820.75;;;14.27;55.53
61292;BME280;47165;42.664;23.368;2023-04-30T06:45:19;94829.47;;;14.39;55.73
61292;BME280;47165;42.664;23.368;2023-04-30T06:47:44;94818.00;;;14.29;55.66
61292;BME280;47165;42.664;23.368;2023-04-30T06:50:11;94820.16;;;14.35;55.89
61292;BME280;47165;42.664;23.368;2023-04-30T06:52:36;94819.03;;;14.51;55.56
61292;BME280;47165;42.664;23.368;2023-04-30T06:55:02;94821.28;;;14.55;55.11
61292;BME280;47165;42.664;23.368;2023-04-30T06:57:28;94824.09;;;14.65;55.04
61292;BME280;47165;42.664;23.368;2023-04-30T06:59:54;94818.38;;;14.71;54.85
61292;BME280;47165;42.664;23.368;2023-04-30T07:02:19;94824.81;;;14.78;54.95
61292;BME280;47165;42.664;23.368;2023-04-30T07:04:45;94821.41;;;14.89;53.91
61292;BME280;47165;42.664;23.368;2023-04-30T07:07:10;94819.25;;;14.94;53.57
61292;BME280;47165;42.664;23.368;2023-04-30T07:09:36;94814.00;;;15.05;53.70
61292;BME280;47165;42.664;23.368;2023-04-30T07:12:02;94819.13;;;15.07;52.94
61292;BME280;47165;42.664;23.368;2023-04-30T07:14:28;94818.06;;;15.21;52.55
61292;BME280;47165;42.664;23.368;2023-04-30T07:16:53;94825.22;;;15.30;52.30
61292;BME280;47165;42.664;23.368;2023-04-30T07:19:18;94815.53;;;15.31;51.48
61292;BME280;47165;42.664;23.368;2023-04-30T07:21:44;94818.41;;;15.39;51.43
61292;BME280;47165;42.664;23.368;2023-04-30T07:24:10;94827.97;;;15.51;51.54
61292;BME280;47165;42.664;23.368;2023-04-30T07:26:36;94820.88;;;15.63;51.53
61292;BME280;47165;42.664;23.368;2023-04-30T07:29:02;94819.94;;;15.75;51.84
61292;BME280;47165;42.664;23.368;2023-04-30T07:31:28;94825.78;;;15.79;51.25
61292;BME280;47165;42.664;23.368;2023-04-30T07:33:54;94820.38;;;15.92;50.95
61292;BME280;47165;42.664;23.368;2023-04-30T07:36:20;94824.66;;;16.04;50.45
61292;BME280;47165;42.664;23.368;2023-04-30T07:38:45;94823.88;;;16.13;51.30
61292;BME280;47165;42.664;23.368;2023-04-30T07:41:12;94824.19;;;16.20;51.01
61292;BME280;47165;42.664;23.368;2023-04-30T07:43:38;94815.97;;;16.13;50.80
61292;BME280;47165;42.664;23.368;2023-04-30T07:46:03;94829.34;;;16.21;50.81
61292;BME280;47165;42.664;23.368;2023-04-30T07:48:29;94822.75;;;16.27;51.11
61292;BME280;47165;42.664;23.368;2023-04-30T07:50:55;94826.22;;;16.27;49.83
61292;BME280;47165;42.664;23.368;2023-04-30T07:53:22;94827.41;;;16.35;49.30
61292;BME280;47165;42.664;23.368;2023-04-30T07:55:47;94828.94;;;16.37;49.55
61292;BME280;47165;42.664;23.368;2023-04-30T07:58:13;94823.19;;;16.32;48.11
61292;BME280;47165;42.664;23.368;2023-04-30T08:00:38;94823.41;;;16.40;47.48
61292;BME280;47165;42.664;23.368;2023-04-30T08:03:03;94829.72;;;16.49;48.14
61292;BME280;47165;42.664;23.368;2023-04-30T08:05:29;94825.22;;;16.61;47.12
61292;BME280;47165;42.664;23.368;2023-04-30T08:07:54;94822.97;;;16.35;46.97
61292;BME280;47165;42.664;23.368;2023-04-30T08:10:20;94808.47;;;16.29;46.93
61292;BME280;47165;42.664;23.368;2023-04-30T08:12:45;94815.63;;;16.60;46.48
61292;BME280;47165;42.664;23.368;2023-04-30T08:15:11;94826.00;;;16.52;44.85
61292;BME280;47165;42.664;23.368;2023-04-30T08:17:36;94830.94;;;16.66;45.88
61292;BME280;47165;42.664;23.368;2023-04-30T08:20:03;94827.72;;;16.62;45.66
61292;BME280;47165;42.664;23.368;2023-04-30T08:22:28;94822.72;;;16.80;45.26
61292;BME280;47165;42.664;23.368;2023-04-30T08:24:54;94835.47;;;16.96;44.74
61292;BME280;47165;42.664;23.368;2023-04-30T08:27:20;94820.88;;;16.92;45.38
61292;BME280;47165;42.664;23.368;2023-04-30T08:29:46;94824.88;;;17.17;45.19
61292;BME280;47165;42.664;23.368;2023-04-30T08:32:11;94832.47;;;16.47;45.71
61292;BME280;47165;42.664;23.368;2023-04-30T08:34:37;94833.59;;;16.87;44.95
61292;BME280;47165;42.664;23.368;2023-04-30T08:37:05;94827.63;;;17.16;44.24
61292;BME280;47165;42.664;23.368;2023-04-30T08:39:30;94831.16;;;16.95;44.25
61292;BME280;47165;42.664;23.368;2023-04-30T08:42:00;94830.63;;;17.01;44.50
61292;BME280;47165;42.664;23.368;2023-04-30T08:44:28;94824.53;;;17.01;44.48
61292;BME280;47165;42.664;23.368;2023-04-30T08:46:55;94827.38;;;17.19;44.30
61292;BME280;47165;42.664;23.368;2023-04-30T08:49:23;94826.47;;;17.29;43.73
61292;BME280;47165;42.664;23.368;2023-04-30T08:51:49;94820.69;;;17.45;43.45
61292;BME280;47165;42.664;23.368;2023-04-30T08:54:15;94821.16;;;17.60;42.96
61292;BME280;47165;42.664;23.368;2023-04-30T08:56:41;94821.28;;;17.59;43.04
61292;BME280;47165;42.664;23.368;2023-04-30T08:59:07;94810.88;;;17.67;42.46
61292;BME280;47165;42.664;23.368;2023-04-30T09:01:33;94814.88;;;17.52;42.31
61292;BME280;47165;42.664;23.368;2023-04-30T09:04:01;94800.28;;;17.47;42.42
61292;BME280;47165;42.664;23.368;2023-04-30T09:06:27;94803.28;;;17.33;42.71
61292;BME280;47165;42.664;23.368;2023-04-30T09:08:53;94804.16;;;17.43;42.31
61292;BME280;47165;42.664;23.368;2023-04-30T09:11:29;94798.22;;;16.89;43.07
61292;BME280;47165;42.664;23.368;2023-04-30T09:13:57;94797.88;;;17.04;43.26
61292;BME280;47165;42.664;23.368;2023-04-30T09:16:27;94790.78;;;17.35;42.88
61292;BME280;47165;42.664;23.368;2023-04-30T09:18:54;94783.91;;;17.54;42.20
61292;BME280;47165;42.664;23.368;2023-04-30T09:21:31;94787.81;;;17.69;41.98
61292;BME280;47165;42.664;23.368;2023-04-30T09:23:59;94785.31;;;17.77;41.38
61292;BME280;47165;42.664;23.368;2023-04-30T09:26:30;94773.97;;;17.96;41.18
61292;BME280;47165;42.664;23.368;2023-04-30T09:28:57;94772.47;;;18.13;40.54
61292;BME280;47165;42.664;23.368;2023-04-30T09:31:23;94779.13;;;18.27;40.47
61292;BME280;47165;42.664;23.368;2023-04-30T09:33:52;94767.59;;;18.38;39.59
61292;BME280;47165;42.664;23.368;2023-04-30T09:36:19;94766.34;;;18.22;39.44
61292;BME280;47165;42.664;23.368;2023-04-30T09:38:45;94768.16;;;18.22;40.07
61292;BME280;47165;42.664;23.368;2023-04-30T09:41:24;94764.50;;;18.42;39.58
61292;BME280;47165;42.664;23.368;2023-04-30T09:43:51;94766.00;;;18.64;39.48
61292;BME280;47165;42.664;23.368;2023-04-30T09:46:21;94756.66;;;18.89;39.43
61292;BME280;47165;42.664;23.368;2023-04-30T09:48:56;94743.53;;;18.98;38.89
61292;BME280;47165;42.664;23.368;2023-04-30T09:51:22;94751.00;;;19.12;38.81
61292;BME280;47165;42.664;23.368;2023-04-30T09:53:48;94742.03;;;19.23;38.66
61292;BME280;47165;42.664;23.368;2023-04-30T09:56:20;94732.16;;;19.15;37.66
61292;BME280;47165;42.664;23.368;2023-04-30T09:58:58;94736.38;;;19.08;37.68
61292;BME280;47165;42.664;23.368;2023-04-30T10:01:26;94741.44;;;19.01;38.46
61292;BME280;47165;42.664;23.368;2023-04-30T10:03:52;94737.31;;;19.17;39.23
61292;BME280;47165;42.664;23.368;2023-04-30T10:06:20;94737.91;;;19.38;38.44
61292;BME280;47165;42.664;23.368;2023-04-30T10:08:54;94736.03;;;19.48;38.55
61292;BME280;47165;42.664;23.368;2023-04-30T10:11:22;94723.81;;;19.65;37.52
61292;BME280;47165;42.664;23.368;2023-04-30T10:13:54;94722.25;;;19.45;36.47
61292;BME280;47165;42.664;23.368;2023-04-30T10:16:33;94727.19;;;19.85;37.76
61292;BME280;47165;42.664;23.368;2023-04-30T10:19:23;94729.75;;;20.13;36.17
61292;BME280;47165;42.664;23.368;2023-04-30T10:21:47;94704.47;;;20.01;35.58
61292;BME280;47165;42.664;23.368;2023-04-30T10:24:14;94722.66;;;20.40;36.19
61292;BME280;47165;42.664;23.368;2023-04-30T10:26:42;94723.34;;;20.42;36.03
61292;BME280;47165;42.664;23.368;2023-04-30T10:29:08;94737.00;;;20.47;36.27
61292;BME280;47165;42.664;23.368;2023-04-30T10:31:34;94755.81;;;20.00;36.06
61292;BME280;47165;42.664;23.368;2023-04-30T10:36:46;94777.03;;;19.07;39.20
61292;BME280;47165;42.664;23.368;2023-04-30T10:39:21;94778.81;;;18.69;40.51
61292;BME280;47165;42.664;23.368;2023-04-30T10:41:48;94787.34;;;18.34;42.83
61292;BME280;47165;42.664;23.368;2023-04-30T10:44:14;94792.06;;;17.91;44.01
61292;BME280;47165;42.664;23.368;2023-04-30T10:46:45;94804.16;;;17.13;48.05
61292;BME280;47165;42.664;23.368;2023-04-30T10:49:11;94804.31;;;16.69;48.95
61292;BME280;47165;42.664;23.368;2023-04-30T10:51:49;94789.16;;;16.61;48.52
61292;BME280;47165;42.664;23.368;2023-04-30T10:54:30;94778.97;;;16.78;49.99
61292;BME280;47165;42.664;23.368;2023-04-30T10:57:16;94783.25;;;17.21;50.62
61292;BME280;47165;42.664;23.368;2023-04-30T11:00:16;94780.72;;;17.60;53.26
61292;BME280;47165;42.664;23.368;2023-04-30T11:02:40;94779.25;;;18.06;51.52
61292;BME280;47165;42.664;23.368;2023-04-30T11:05:14;94775.78;;;18.54;50.66
61292;BME280;47165;42.664;23.368;2023-04-30T11:10:16;94767.47;;;19.34;44.86
61292;BME280;47165;42.664;23.368;2023-04-30T11:12:49;94762.44;;;19.58;43.31
61292;BME280;47165;42.664;23.368;2023-04-30T11:15:17;94765.47;;;19.91;42.89
61292;BME280;47165;42.664;23.368;2023-04-30T11:17:44;94753.00;;;20.01;42.28
61292;BME280;47165;42.664;23.368;2023-04-30T11:20:17;94758.44;;;20.54;42.64
61292;BME280;47165;42.664;23.368;2023-04-30T11:22:43;94749.31;;;20.56;40.60
61292;BME280;47165;42.664;23.368;2023-04-30T11:25:15;94753.63;;;20.75;39.97
61292;BME280;47165;42.664;23.368;2023-04-30T11:27:43;94750.88;;;20.85;39.50
61292;BME280;47165;42.664;23.368;2023-04-30T11:30:13;94746.47;;;21.02;38.89
61292;BME280;47165;42.664;23.368;2023-04-30T11:32:39;94754.06;;;21.23;39.70
61292;BME280;47165;42.664;23.368;2023-04-30T11:35:06;94748.44;;;21.26;37.16
61292;BME280;47165;42.664;23.368;2023-04-30T11:37:35;94740.00;;;21.39;37.88
61292;BME280;47165;42.664;23.368;2023-04-30T11:40:03;94749.66;;;21.40;40.01
61292;BME280;47165;42.664;23.368;2023-04-30T11:42:30;94747.31;;;21.37;39.14
61292;BME280;47165;42.664;23.368;2023-04-30T11:45:11;94751.03;;;21.18;39.36
61292;BME280;47165;42.664;23.368;2023-04-30T11:47:56;94751.59;;;20.69;39.82
61292;BME280;47165;42.664;23.368;2023-04-30T11:50:24;94751.25;;;20.90;41.67
61292;BME280;47165;42.664;23.368;2023-04-30T11:52:57;94756.25;;;21.62;41.06
61292;BME280;47165;42.664;23.368;2023-04-30T11:55:25;94757.94;;;21.71;39.62
61292;BME280;47165;42.664;23.368;2023-04-30T11:57:54;94748.53;;;21.42;40.65
61292;BME280;47165;42.664;23.368;2023-04-30T12:00:29;94746.16;;;21.90;40.82
61292;BME280;47165;42.664;23.368;2023-04-30T12:02:56;94743.94;;;22.44;40.99
61292;BME280;47165;42.664;23.368;2023-04-30T12:05:24;94735.91;;;22.85;38.29
61292;BME280;47165;42.664;23.368;2023-04-30T12:08:02;94740.41;;;24.81;37.11
61292;BME280;47165;42.664;23.368;2023-04-30T12:10:31;94736.28;;;25.82;33.02
61292;BME280;47165;42.664;23.368;2023-04-30T12:12:56;94737.66;;;26.15;33.90
61292;BME280;47165;42.664;23.368;2023-04-30T12:15:24;94735.56;;;26.10;31.74
61292;BME280;47165;42.664;23.368;2023-04-30T12:20:20;94748.19;;;26.16;31.08
61292;BME280;47165;42.664;23.368;2023-04-30T12:22:47;94752.34;;;25.82;32.25
61292;BME280;47165;42.664;23.368;2023-04-30T12:25:14;94760.72;;;24.67;34.01
61292;BME280;47165;42.664;23.368;2023-04-30T12:27:52;94768.81;;;23.73;35.66
61292;BME280;47165;42.664;23.368;2023-04-30T12:30:26;94781.84;;;23.04;37.47
61292;BME280;47165;42.664;23.368;2023-04-30T12:32:55;94784.34;;;22.73;38.03
61292;BME280;47165;42.664;23.368;2023-04-30T12:35:22;94775.41;;;21.90;44.03
61292;BME280;47165;42.664;23.368;2023-04-30T12:37:52;94758.94;;;21.70;47.34
61292;BME280;47165;42.664;23.368;2023-04-30T12:40:25;94773.41;;;21.41;45.68
61292;BME280;47165;42.664;23.368;2023-04-30T12:42:59;94765.53;;;20.97;45.41
61292;BME280;47165;42.664;23.368;2023-04-30T12:45:49;94768.09;;;20.81;46.80
61292;BME280;47165;42.664;23.368;2023-04-30T12:48:22;94772.78;;;20.43;48.05
61292;BME280;47165;42.664;23.368;2023-04-30T12:50:58;94764.34;;;20.29;48.36
61292;BME280;47165;42.664;23.368;2023-04-30T12:53:25;94755.34;;;20.22;47.58
61292;BME280;47165;42.664;23.368;2023-04-30T12:56:26;94763.38;;;20.30;46.83
61292;BME280;47165;42.664;23.368;2023-04-30T12:58:51;94766.09;;;20.39;48.53
61292;BME280;47165;42.664;23.368;2023-04-30T13:01:19;94779.31;;;20.57;50.14
61292;BME280;47165;42.664;23.368;2023-04-30T13:03:46;94764.13;;;21.11;48.39
61292;BME280;47165;42.664;23.368;2023-04-30T13:06:12;94775.78;;;21.95;45.67
61292;BME280;47165;42.664;23.368;2023-04-30T13:08:38;94762.72;;;22.67;43.25
61292;BME280;47165;42.664;23.368;2023-04-30T13:11:04;94753.13;;;23.39;40.80
61292;BME280;47165;42.664;23.368;2023-04-30T13:13:29;94753.91;;;23.47;37.25
61292;BME280;47165;42.664;23.368;2023-04-30T13:15:55;94748.84;;;22.97;38.12